createdAt,value
2018-04-11T00:00:59.443Z,88.50
2018-04-11T00:03:27.066Z,88.80
2018-04-11T00:05:54.698Z,88.60
2018-04-11T00:08:23.995Z,88.20
2018-04-11T00:10:51.619Z,88.00
2018-04-11T00:13:19.238Z,88.10
2018-04-11T00:15:46.843Z,87.80
2018-04-11T00:18:14.449Z,87.10
2018-04-11T00:20:42.033Z,86.40
2018-04-11T00:23:09.572Z,86.50
2018-04-11T00:25:37.203Z,86.10
2018-04-11T00:28:05.542Z,86.90
2018-04-11T00:30:33.128Z,86.90
2018-04-11T00:33:00.746Z,86.20
2018-04-11T00:35:28.360Z,86.50
2018-04-11T00:37:57.563Z,87.40
2018-04-11T00:40:25.933Z,87.20
2018-04-11T00:42:54.284Z,87.20
2018-04-11T00:45:21.883Z,87.10
2018-04-11T00:47:50.225Z,86.60
2018-04-11T00:50:17.825Z,86.40
2018-04-11T00:52:57.485Z,87.20
2018-04-11T00:55:36.524Z,87.20
2018-04-11T00:58:06.317Z,87.10
2018-04-11T01:00:33.891Z,87.50
2018-04-11T01:03:01.483Z,88.00
2018-04-11T01:05:29.126Z,88.10
2018-04-11T01:07:57.429Z,88.00
2018-04-11T01:10:24.984Z,88.30
2018-04-11T01:12:52.645Z,88.20
2018-04-11T01:15:20.247Z,88.40
2018-04-11T01:17:47.891Z,88.90
2018-04-11T01:20:15.488Z,88.60
2018-04-11T01:22:43.096Z,88.70
2018-04-11T01:25:11.489Z,88.50
2018-04-11T01:27:39.847Z,88.60
2018-04-11T01:30:07.441Z,88.60
2018-04-11T01:32:35.037Z,88.50
2018-04-11T01:35:02.663Z,88.30
2018-04-11T01:37:30.255Z,88.30
2018-04-11T01:39:57.865Z,88.60
2018-04-11T01:42:26.235Z,88.50
2018-04-11T01:44:54.629Z,88.10
2018-04-11T01:47:22.249Z,88.00
2018-04-11T01:49:49.864Z,88.40
2018-04-11T01:52:17.496Z,88.10
2018-04-11T01:54:45.871Z,87.80
2018-04-11T01:57:14.220Z,87.90
2018-04-11T01:59:41.789Z,87.50
2018-04-11T02:02:09.338Z,87.50
2018-04-11T02:04:36.931Z,87.90
2018-04-11T02:07:04.536Z,88.50
2018-04-11T02:09:32.169Z,87.60
2018-04-11T02:11:59.768Z,87.90
2018-04-11T02:14:27.436Z,87.60
2018-04-11T02:16:55.096Z,87.60
2018-04-11T02:19:22.687Z,87.80
2018-04-11T02:21:50.304Z,87.60
2018-04-11T02:24:17.885Z,87.90
2018-04-11T02:26:45.519Z,87.80
2018-04-11T02:29:13.142Z,87.60
2018-04-11T02:31:40.775Z,87.80
2018-04-11T02:34:08.337Z,87.60
2018-04-11T02:36:35.973Z,87.80
2018-04-11T02:39:03.527Z,87.80
2018-04-11T02:41:31.117Z,87.80
2018-04-11T02:43:58.711Z,87.60
2018-04-11T02:46:27.099Z,87.60
2018-04-11T02:48:55.477Z,87.60
2018-04-11T02:51:23.861Z,87.60
2018-04-11T02:53:52.238Z,87.70
2018-04-11T02:56:20.585Z,88.00
2018-04-11T02:58:49.703Z,88.00
2018-04-11T03:01:17.338Z,88.00
2018-04-11T03:03:44.939Z,87.50
2018-04-11T03:06:13.288Z,87.60
2018-04-11T03:08:40.922Z,87.50
2018-04-11T03:11:08.546Z,87.90
2018-04-11T03:13:36.983Z,87.90
2018-04-11T03:16:04.611Z,87.90
2018-04-11T03:18:32.227Z,88.00
2018-04-11T03:21:00.619Z,87.90
2018-04-11T03:23:29.000Z,87.80
2018-04-11T03:25:57.379Z,87.60
2018-04-11T03:28:25.753Z,88.10
2018-04-11T03:30:54.146Z,88.10
2018-04-11T03:33:21.757Z,88.00
2018-04-11T03:35:49.371Z,87.50
2018-04-11T03:38:17.013Z,87.40
2018-04-11T03:40:45.439Z,87.20
2018-04-11T03:43:13.004Z,87.10
2018-04-11T03:45:40.597Z,87.40
2018-04-11T03:48:08.170Z,87.30
2018-04-11T03:50:35.746Z,87.40
2018-04-11T03:53:04.144Z,87.40
2018-04-11T03:55:31.798Z,87.40
2018-04-11T03:57:59.408Z,87.40
2018-04-11T04:00:27.030Z,87.40
2018-04-11T04:02:54.661Z,87.40
2018-04-11T04:05:23.007Z,87.30
2018-04-11T04:07:50.626Z,87.40
2018-04-11T04:10:24.163Z,87.40
2018-04-11T04:12:51.767Z,87.40
2018-04-11T04:15:32.033Z,87.30
2018-04-11T04:18:11.350Z,87.20
2018-04-11T04:20:38.996Z,87.40
2018-04-11T04:23:06.595Z,87.30
2018-04-11T04:25:34.213Z,87.30
2018-04-11T04:28:01.833Z,87.00
2018-04-11T04:30:29.441Z,86.80
2018-04-11T04:33:04.763Z,86.70
2018-04-11T04:35:32.395Z,86.90
2018-04-11T04:37:59.971Z,86.90
2018-04-11T04:40:27.589Z,87.10
2018-04-11T04:42:55.142Z,87.10
2018-04-11T04:45:23.536Z,87.80
2018-04-11T04:47:51.146Z,87.70
2018-04-11T04:50:18.762Z,87.30
2018-04-11T04:52:46.373Z,87.00
2018-04-11T04:55:13.987Z,86.90
2018-04-11T04:57:45.120Z,87.30
2018-04-11T05:00:12.738Z,87.00
2018-04-11T05:02:40.356Z,86.80
2018-04-11T05:05:07.999Z,86.70
2018-04-11T05:07:35.617Z,86.50
2018-04-11T05:10:03.248Z,86.00
2018-04-11T05:12:30.866Z,85.80
2018-04-11T05:14:59.227Z,85.70
2018-04-11T05:17:26.850Z,85.70
2018-04-11T05:19:54.462Z,85.90
2018-04-11T05:22:22.866Z,85.00
2018-04-11T05:24:50.566Z,85.00
2018-04-11T05:27:18.149Z,84.90
2018-04-11T05:29:46.568Z,84.30
2018-04-11T05:32:14.572Z,84.30
2018-04-11T05:34:43.488Z,84.20
2018-04-11T05:37:11.910Z,83.90
2018-04-11T05:39:39.545Z,83.80
2018-04-11T05:42:07.930Z,83.80
2018-04-11T05:44:35.534Z,83.80
2018-04-11T05:47:03.148Z,83.10
2018-04-11T05:49:31.548Z,83.10
2018-04-11T05:51:59.153Z,83.00
2018-04-11T05:54:26.813Z,82.70
2018-04-11T05:56:54.455Z,82.20
2018-04-11T05:59:22.085Z,81.60
2018-04-11T06:01:49.685Z,81.30
2018-04-11T06:04:17.334Z,81.40
2018-04-11T06:06:44.930Z,80.30
2018-04-11T06:09:12.858Z,80.10
2018-04-11T06:11:40.494Z,79.10
2018-04-11T06:14:08.064Z,79.60
2018-04-11T06:16:35.709Z,78.80
2018-04-11T06:19:03.314Z,78.50
2018-04-11T06:21:34.701Z,78.90
2018-04-11T06:24:02.309Z,78.10
2018-04-11T06:26:29.921Z,76.70
2018-04-11T06:28:58.263Z,77.10
2018-04-11T06:31:25.914Z,76.20
2018-04-11T06:33:53.527Z,75.90
2018-04-11T06:36:21.161Z,74.50
2018-04-11T06:38:53.225Z,75.20
2018-04-11T06:41:20.795Z,74.80
2018-04-11T06:43:48.438Z,73.60
2018-04-11T06:46:16.075Z,75.00
2018-04-11T06:48:43.691Z,75.10
2018-04-11T06:51:11.305Z,73.60
2018-04-11T06:53:38.896Z,73.30
2018-04-11T06:56:06.495Z,72.20
2018-04-11T06:58:34.097Z,72.30
2018-04-11T07:01:01.781Z,70.60
2018-04-11T07:03:29.369Z,71.00
2018-04-11T07:05:57.004Z,70.80
2018-04-11T07:08:24.635Z,69.20
2018-04-11T07:10:52.249Z,70.80
2018-04-11T07:13:19.903Z,70.20
2018-04-11T07:15:47.596Z,69.40
2018-04-11T07:18:16.231Z,70.60
2018-04-11T07:20:43.825Z,70.20
2018-04-11T07:23:11.441Z,71.30
2018-04-11T07:25:39.043Z,71.40
2018-04-11T07:28:06.681Z,70.20
2018-04-11T07:30:34.291Z,70.70
2018-04-11T07:33:02.669Z,68.30
2018-04-11T07:35:30.977Z,65.70
2018-04-11T07:37:58.581Z,65.70
2018-04-11T07:40:26.207Z,65.70
2018-04-11T07:42:53.760Z,65.20
2018-04-11T07:45:21.415Z,63.80
2018-04-11T07:47:49.005Z,64.00
2018-04-11T07:50:16.616Z,62.10
2018-04-11T07:52:45.025Z,66.50
2018-04-11T07:55:12.618Z,66.40
2018-04-11T07:57:40.239Z,63.00
2018-04-11T08:00:07.835Z,61.90
2018-04-11T08:02:35.455Z,60.60
2018-04-11T08:05:03.075Z,63.00
2018-04-11T08:07:30.693Z,61.40
2018-04-11T08:09:58.330Z,63.10
2018-04-11T08:12:26.680Z,60.40
2018-04-11T08:14:54.311Z,60.40
2018-04-11T08:17:21.928Z,61.40
2018-04-11T08:19:49.531Z,62.20
2018-04-11T08:22:17.161Z,62.90
2018-04-11T08:24:44.777Z,63.60
2018-04-11T08:27:12.383Z,61.80
2018-04-11T08:29:41.694Z,61.90
2018-04-11T08:32:09.284Z,61.90
2018-04-11T08:34:37.027Z,63.20
2018-04-11T08:37:04.627Z,63.50
2018-04-11T08:39:32.225Z,61.70
2018-04-11T08:41:59.855Z,61.60
2018-04-11T08:44:27.463Z,63.20
2018-04-11T08:46:55.051Z,63.40
2018-04-11T08:49:22.687Z,60.80
2018-04-11T08:51:50.295Z,61.40
2018-04-11T08:54:17.911Z,61.90
2018-04-11T08:56:45.529Z,59.60
2018-04-11T08:59:13.859Z,58.70
2018-04-11T09:01:42.258Z,57.60
2018-04-11T09:04:09.885Z,57.50
2018-04-11T09:06:37.474Z,57.80
2018-04-11T09:09:05.864Z,55.00
2018-04-11T09:11:33.481Z,55.00
2018-04-11T09:14:01.123Z,55.50
2018-04-11T09:16:28.703Z,55.50
2018-04-11T09:18:56.295Z,55.30
2018-04-11T09:21:23.903Z,55.90
2018-04-11T09:23:51.494Z,55.90
2018-04-11T09:26:19.087Z,55.90
2018-04-11T09:28:46.667Z,55.10
2018-04-11T09:31:14.249Z,55.70
2018-04-11T09:33:41.859Z,54.20
2018-04-11T09:36:09.460Z,52.60
2018-04-11T09:38:37.085Z,53.30
2018-04-11T09:41:04.676Z,53.50
2018-04-11T09:43:32.322Z,53.80
2018-04-11T09:45:59.942Z,53.30
2018-04-11T09:48:27.662Z,52.70
2018-04-11T09:50:55.279Z,52.30
2018-04-11T09:53:23.662Z,52.30
2018-04-11T09:55:51.303Z,52.20
2018-04-11T09:58:18.866Z,51.90
2018-04-11T10:00:52.122Z,50.20
2018-04-11T10:03:22.202Z,51.00
2018-04-11T10:05:49.797Z,50.70
2018-04-11T10:08:17.397Z,49.50
2018-04-11T10:10:45.010Z,48.90
2018-04-11T10:13:12.562Z,49.90
2018-04-11T10:15:40.208Z,49.30
2018-04-11T10:18:08.626Z,50.30
2018-04-11T10:20:36.201Z,50.20
2018-04-11T10:23:03.812Z,50.60
2018-04-11T10:25:31.376Z,49.40
2018-04-11T10:27:58.983Z,50.10
2018-04-11T10:30:26.597Z,50.70
2018-04-11T10:32:54.207Z,51.60
2018-04-11T10:35:21.814Z,52.00
2018-04-11T10:37:49.416Z,50.70
2018-04-11T10:40:16.970Z,50.30
2018-04-11T10:42:44.538Z,50.20
2018-04-11T10:45:12.119Z,51.00
2018-04-11T10:47:39.752Z,50.50
2018-04-11T10:50:07.374Z,51.00
2018-04-11T10:52:35.015Z,51.60
2018-04-11T10:55:03.369Z,52.20
2018-04-11T10:57:30.976Z,52.20
2018-04-11T10:59:58.594Z,53.60
2018-04-11T11:02:27.706Z,51.90
2018-04-11T11:04:55.346Z,51.90
2018-04-11T11:07:23.732Z,50.00
2018-04-11T11:09:51.332Z,50.10
2018-04-11T11:12:18.916Z,50.40
2018-04-11T11:14:46.510Z,50.60
2018-04-11T11:17:14.892Z,50.20
2018-04-11T11:19:54.404Z,49.60
2018-04-11T11:22:21.988Z,48.80
2018-04-11T11:24:50.383Z,51.30
2018-04-11T11:27:17.982Z,51.30
2018-04-11T11:29:45.596Z,50.80
2018-04-11T11:32:13.217Z,52.90
2018-04-11T11:34:40.965Z,49.40
2018-04-11T11:37:08.573Z,52.70
2018-04-11T11:39:36.937Z,48.40
2018-04-11T11:42:05.353Z,46.40
2018-04-11T11:44:32.905Z,46.40
2018-04-11T11:47:00.509Z,46.90
2018-04-11T11:49:28.075Z,45.40
2018-04-11T11:51:55.697Z,46.10
2018-04-11T11:54:23.297Z,46.80
2018-04-11T11:56:50.900Z,47.30
2018-04-11T11:59:18.491Z,50.10
2018-04-11T12:01:46.085Z,47.50
2018-04-11T12:04:13.671Z,47.80
2018-04-11T12:06:42.081Z,48.80
2018-04-11T12:09:09.675Z,48.80
2018-04-11T12:11:37.281Z,50.90
2018-04-11T12:14:04.887Z,50.60
2018-04-11T12:16:33.237Z,49.80
2018-04-11T12:19:00.853Z,49.70
2018-04-11T12:21:28.456Z,51.50
2018-04-11T12:23:56.075Z,50.40
2018-04-11T12:26:23.677Z,52.20
2018-04-11T12:28:51.286Z,49.70
2018-04-11T12:31:18.889Z,49.50
2018-04-11T12:33:46.491Z,50.40
2018-04-11T12:36:14.093Z,50.40
2018-04-11T12:38:41.696Z,52.50
2018-04-11T12:41:10.061Z,54.90
2018-04-11T12:43:37.683Z,54.30
2018-04-11T12:46:05.274Z,49.30
2018-04-11T12:48:32.881Z,46.50
2018-04-11T12:51:00.484Z,47.80
2018-04-11T12:53:39.701Z,45.90
2018-04-11T12:56:07.299Z,42.90
2018-04-11T12:58:34.920Z,39.30
2018-04-11T13:01:02.552Z,37.00
2018-04-11T13:03:33.658Z,32.80
2018-04-11T13:06:01.268Z,34.30
2018-04-11T13:08:28.871Z,35.10
2018-04-11T13:11:00.507Z,38.00
2018-04-11T13:13:28.161Z,40.70
2018-04-11T13:15:55.789Z,44.10
2018-04-11T13:18:24.168Z,46.80
2018-04-11T13:20:52.555Z,47.30
2018-04-11T13:23:20.129Z,47.30
2018-04-11T13:25:47.707Z,48.10
2018-04-11T13:28:15.649Z,47.60
2018-04-11T13:30:43.257Z,49.00
2018-04-11T13:33:10.871Z,49.00
2018-04-11T13:35:38.495Z,48.90
2018-04-11T13:38:06.141Z,48.60
2018-04-11T13:40:33.755Z,47.90
2018-04-11T13:43:01.365Z,46.80
2018-04-11T13:45:28.961Z,47.20
2018-04-11T13:47:58.056Z,47.70
2018-04-11T13:50:26.425Z,48.30
2018-04-11T13:52:54.782Z,48.90
2018-04-11T13:55:23.900Z,47.80
2018-04-11T13:57:52.281Z,46.60
2018-04-11T14:00:21.268Z,48.10
2018-04-11T14:02:49.654Z,48.30
2018-04-11T14:05:17.242Z,48.20
2018-04-11T14:07:44.872Z,48.90
2018-04-11T14:10:13.256Z,48.80
2018-04-11T14:12:41.590Z,47.50
2018-04-11T14:15:09.194Z,47.50
2018-04-11T14:17:37.545Z,46.80
2018-04-11T14:20:05.161Z,47.00
2018-04-11T14:22:32.750Z,46.00
2018-04-11T14:25:03.054Z,45.90
2018-04-11T14:27:30.670Z,46.70
2018-04-11T14:29:58.270Z,46.10
2018-04-11T14:32:25.850Z,46.70
2018-04-11T14:34:53.466Z,46.10
2018-04-11T14:37:41.006Z,46.50
2018-04-11T14:40:09.359Z,46.90
2018-04-11T14:42:36.961Z,47.00
2018-04-11T14:45:04.531Z,44.70
2018-04-11T14:47:32.152Z,46.30
2018-04-11T14:50:00.495Z,44.90
2018-04-11T14:52:28.107Z,44.90
2018-04-11T14:54:55.719Z,45.00
2018-04-11T14:57:23.338Z,46.00
2018-04-11T14:59:50.892Z,45.70
2018-04-11T15:02:18.486Z,45.40
2018-04-11T15:04:46.044Z,43.90
2018-04-11T15:07:13.646Z,44.30
2018-04-11T15:09:41.245Z,43.30
2018-04-11T15:12:08.844Z,44.30
2018-04-11T15:14:36.430Z,43.90
2018-04-11T15:17:04.053Z,43.30
2018-04-11T15:19:39.268Z,41.70
2018-04-11T15:22:06.884Z,42.30
2018-04-11T15:24:34.504Z,42.20
2018-04-11T15:27:02.168Z,41.90
2018-04-11T15:29:29.784Z,41.20
2018-04-11T15:31:58.174Z,38.30
2018-04-11T15:34:29.604Z,38.30
2018-04-11T15:36:57.960Z,37.70
2018-04-11T15:39:25.593Z,37.70
2018-04-11T15:41:53.516Z,38.60
2018-04-11T15:44:21.904Z,39.10
2018-04-11T15:46:49.514Z,39.00
2018-04-11T15:49:17.129Z,39.30
2018-04-11T15:51:44.715Z,37.50
2018-04-11T15:54:12.308Z,38.10
2018-04-11T15:56:39.916Z,38.90
2018-04-11T15:59:07.508Z,37.90
2018-04-11T16:01:35.102Z,38.30
2018-04-11T16:04:02.711Z,35.80
2018-04-11T16:06:30.292Z,37.30
2018-04-11T16:08:57.940Z,37.30
2018-04-11T16:11:25.598Z,35.90
2018-04-11T16:13:53.180Z,36.30
2018-04-11T16:16:20.810Z,36.70
2018-04-11T16:18:56.995Z,36.30
2018-04-11T16:21:25.066Z,37.20
2018-04-11T16:23:52.666Z,37.60
2018-04-11T16:26:20.342Z,37.90
2018-04-11T16:28:47.974Z,38.90
2018-04-11T16:31:15.626Z,39.10
2018-04-11T16:33:43.258Z,39.00
2018-04-11T16:36:17.231Z,39.20
2018-04-11T16:38:44.832Z,38.70
2018-04-11T16:41:12.475Z,38.80
2018-04-11T16:43:40.092Z,39.00
2018-04-11T16:46:07.720Z,40.00
2018-04-11T16:48:35.326Z,40.60
2018-04-11T16:51:03.030Z,41.00
2018-04-11T16:53:30.618Z,41.50
2018-04-11T16:55:59.106Z,41.10
2018-04-11T16:58:27.504Z,41.60
2018-04-11T17:00:55.068Z,41.60
2018-04-11T17:03:22.686Z,41.90
2018-04-11T17:05:50.269Z,42.60
2018-04-11T17:08:17.922Z,40.60
2018-04-11T17:10:46.354Z,39.70
2018-04-11T17:13:13.981Z,39.50
2018-04-11T17:15:41.581Z,38.30
2018-04-11T17:18:09.200Z,39.50
2018-04-11T17:20:48.563Z,39.90
2018-04-11T17:23:28.002Z,39.30
2018-04-11T17:26:07.446Z,39.60
2018-04-11T17:28:46.950Z,40.80
2018-04-11T17:31:18.130Z,40.80
2018-04-11T17:33:45.742Z,41.10
2018-04-11T17:36:14.129Z,41.10
2018-04-11T17:38:42.554Z,41.30
2018-04-11T17:41:10.125Z,41.30
2018-04-11T17:43:37.748Z,42.00
2018-04-11T17:46:05.354Z,42.00
2018-04-11T17:48:32.938Z,41.70
2018-04-11T17:51:02.234Z,42.30
2018-04-11T17:53:30.567Z,42.70
2018-04-11T17:55:58.164Z,42.70
2018-04-11T17:58:25.768Z,42.80
2018-04-11T18:00:53.336Z,43.10
2018-04-11T18:03:20.952Z,43.40
2018-04-11T18:05:49.328Z,44.40
2018-04-11T18:08:24.682Z,44.30
2018-04-11T18:11:01.191Z,45.00
2018-04-11T18:13:28.850Z,44.60
2018-04-11T18:15:57.235Z,45.00
2018-04-11T18:18:29.351Z,45.10
2018-04-11T18:21:01.114Z,45.30
2018-04-11T18:23:36.639Z,45.40
2018-04-11T18:26:04.257Z,45.80
2018-04-11T18:28:33.852Z,46.00
2018-04-11T18:31:01.449Z,46.10
2018-04-11T18:33:31.673Z,46.50
2018-04-11T18:36:02.351Z,46.60
2018-04-11T18:38:30.760Z,47.10
2018-04-11T18:40:58.357Z,47.00
2018-04-11T18:43:25.975Z,47.60
2018-04-11T18:45:53.599Z,48.20
2018-04-11T18:48:21.155Z,48.50
2018-04-11T18:50:48.801Z,48.80
2018-04-11T18:53:16.425Z,49.50
2018-04-11T18:55:44.019Z,49.70
2018-04-11T19:01:04.868Z,50.10
2018-04-11T19:03:32.441Z,50.70
2018-04-11T19:06:09.011Z,50.70
2018-04-11T19:11:54.994Z,51.40
2018-04-11T19:14:23.176Z,51.60
2018-04-11T19:16:50.709Z,51.80
2018-04-11T19:19:19.165Z,52.10
2018-04-11T19:21:46.688Z,52.40
2018-04-11T19:24:14.228Z,52.50
2018-04-11T19:26:47.293Z,53.10
2018-04-11T19:29:14.870Z,53.50
2018-04-11T19:31:42.390Z,53.90
2018-04-11T19:34:10.664Z,54.70
2018-04-11T19:36:38.202Z,54.70
2018-04-11T19:39:06.498Z,54.70
2018-04-11T19:41:34.061Z,55.10
2018-04-11T19:44:01.590Z,55.40
2018-04-11T19:46:29.126Z,55.80
2018-04-11T19:48:56.640Z,56.00
2018-04-11T19:51:24.167Z,56.30
2018-04-11T19:53:51.754Z,56.70
2018-04-11T19:56:19.273Z,56.90
2018-04-11T19:58:47.594Z,57.30
2018-04-11T20:01:25.265Z,57.30
2018-04-11T20:03:52.806Z,57.50
2018-04-11T20:06:20.330Z,57.60
2018-04-11T20:08:47.888Z,58.00
2018-04-11T20:11:15.451Z,58.20
2018-04-11T20:13:42.941Z,58.30
2018-04-11T20:16:11.229Z,59.00
2018-04-11T20:18:38.792Z,58.90
2018-04-11T20:21:06.283Z,59.30
2018-04-11T20:23:41.237Z,59.30
2018-04-11T20:26:08.733Z,59.40
2018-04-11T20:28:36.238Z,60.00
2018-04-11T20:31:18.329Z,60.50
2018-04-11T20:33:45.863Z,60.90
2018-04-11T20:36:36.481Z,61.20
2018-04-11T20:39:04.044Z,61.50
2018-04-11T20:41:32.618Z,62.10
2018-04-11T20:44:00.201Z,62.10
2018-04-11T20:46:27.892Z,62.30
2018-04-11T20:48:56.313Z,62.40
2018-04-11T20:51:23.906Z,62.40
2018-04-11T20:53:52.295Z,63.20
2018-04-11T20:56:19.905Z,63.30
2018-04-11T20:58:47.494Z,63.50
2018-04-11T21:01:15.089Z,63.90
2018-04-11T21:03:43.470Z,64.70
2018-04-11T21:06:11.844Z,65.10
2018-04-11T21:08:41.124Z,65.20
2018-04-11T21:11:08.774Z,65.20
2018-04-11T21:13:36.384Z,65.60
2018-04-11T21:16:04.750Z,66.20
2018-04-11T21:18:33.124Z,66.50
2018-04-11T21:21:01.490Z,66.90
2018-04-11T21:23:29.088Z,66.80
2018-04-11T21:25:56.691Z,67.20
2018-04-11T21:28:24.303Z,67.30
2018-04-11T21:30:51.946Z,67.50
2018-04-11T21:33:20.318Z,67.20
2018-04-11T21:35:47.895Z,67.10
2018-04-11T21:38:16.275Z,68.10
2018-04-11T21:40:44.654Z,69.00
2018-04-11T21:43:13.027Z,68.90
2018-04-11T21:45:41.400Z,69.30
2018-04-11T21:48:09.776Z,70.00
2018-04-11T21:51:01.648Z,70.00
2018-04-11T21:53:29.990Z,70.00
2018-04-11T21:55:57.605Z,69.90
2018-04-11T21:58:25.231Z,70.20
2018-04-11T22:00:52.818Z,70.50
2018-04-11T22:03:20.414Z,70.70
2018-04-11T22:05:48.022Z,70.90
2018-04-11T22:08:15.618Z,71.00
2018-04-11T22:10:43.244Z,70.90
2018-04-11T22:13:10.900Z,71.20
2018-04-11T22:15:38.498Z,71.20
2018-04-11T22:18:06.121Z,71.40
2018-04-11T22:20:37.635Z,71.50
2018-04-11T22:23:05.232Z,71.50
2018-04-11T22:25:32.798Z,71.50
2018-04-11T22:28:00.415Z,71.80
2018-04-11T22:30:28.072Z,71.90
2018-04-11T22:32:55.802Z,72.80
2018-04-11T22:35:23.434Z,72.20
2018-04-11T22:37:51.045Z,72.30
2018-04-11T22:40:18.630Z,72.50
2018-04-11T22:42:47.018Z,72.90
2018-04-11T22:45:15.403Z,73.00
2018-04-11T22:47:43.748Z,72.70
2018-04-11T22:50:11.380Z,72.70
2018-04-11T22:52:38.976Z,72.90
2018-04-11T22:55:06.559Z,73.20
2018-04-11T22:57:34.975Z,73.00
2018-04-11T23:00:02.594Z,72.90
2018-04-11T23:02:30.969Z,72.30
2018-04-11T23:04:59.335Z,72.30
2018-04-11T23:07:26.941Z,71.50
2018-04-11T23:09:54.561Z,71.60
2018-04-11T23:12:25.222Z,71.30
2018-04-11T23:14:52.835Z,71.30
2018-04-11T23:17:20.437Z,71.10
2018-04-11T23:19:48.772Z,70.90
2018-04-11T23:22:16.379Z,70.90
2018-04-11T23:24:44.031Z,70.70
2018-04-11T23:27:12.385Z,70.50
2018-04-11T23:29:39.985Z,70.30
2018-04-11T23:32:08.377Z,70.20
2018-04-11T23:34:35.989Z,70.20
2018-04-11T23:37:04.379Z,70.30
2018-04-11T23:39:32.026Z,70.20
2018-04-11T23:42:00.410Z,70.30
2018-04-11T23:44:28.754Z,70.30
2018-04-11T23:46:56.353Z,70.30
2018-04-11T23:49:23.945Z,70.00
2018-04-11T23:51:51.551Z,70.00
2018-04-11T23:54:19.184Z,69.90
2018-04-11T23:56:46.836Z,69.80
2018-04-11T23:59:14.500Z,69.80
